Terminal Aerodrome Forecast
Issued by NWS Paducah, KY

Home | Current Version | Previous Version | Text Only | Print | Product List | Glossary On
Versions: 1 2 3 4 5 6 7 8 9 10 11 12 13 14 15 16 17 18
000
FTUS43 KPAH 191739
TAFEVV
TAF
KEVV 191739Z 1918/2018 09005KT 5SM -SHRA BKN007 OVC025
     FM200200 14005KT 3SM -SHRA OVC006
     FM200700 22006KT 3SM -SHRA OVC003
     FM200900 23006KT 1SM BR VCSH OVC005
     FM201200 23006KT 3SM BR OVC010
     FM201600 21005KT P6SM BKN012=

USA.gov is the U.S. government's official web portal to all federal, state and local government web resources and services.